CheckWX is a tool to help pilots better visualize weather data.  It is not intended as a substitute for an official pre-flight weather briefing.

02:01:50 UTC

LSMM METAR
Meiringen Airport
Switzerland
Current

12 mins ago

LSMM 040150Z AUTO 10004KT 9999NDV OVC062 12/11 Q1022 RMK
Observed
Jul-4 @ 01:50 UTC
Wind
  • 100° at 4 KTS
Visibility
Cloud Levels
  • Overcast at 6,200' AGL
Temperature
12°C / 54°F
Dewpoint
11°C / 52°F
Humidity
94%
Altimeter
30.18" Hg
Pressure
1021.92 hPa
Previous

42 mins ago

LSMM 040120Z AUTO 10004KT 070V130 9999NDV OVC059 12/11 Q1022 RMK
Observed
Jul-4 @ 01:20 UTC
Wind
  • 100° at 4 KTS
Visibility
Cloud Levels
  • Overcast at 5,900' AGL
Temperature
12°C / 54°F
Dewpoint
11°C / 52°F
Humidity
94%
Altimeter
30.18" Hg
Pressure
1021.92 hPa
Previous

1 hour ago

LSMM 040050Z AUTO 10003KT 9999NDV FEW015 OVC059 11/11 Q1022 RMK
Observed
Jul-4 @ 00:50 UTC
Wind
  • 100° at 3 KTS
Visibility
Cloud Levels
  • Few at 1,500' AGL
  • Overcast at 5,900' AGL
Temperature
11°C / 52°F
Dewpoint
11°C / 52°F
Humidity
100%
Altimeter
30.18" Hg
Pressure
1021.92 hPa